Ascanius — V7FS9 — position and weather

sailwx.info

Track history (hours):
 
Tides and Currents Weather Stations Pressure Air Temp Water Temp Dewpoint Dewpoint Depression Visibility Wind Speed Wind Dir Waves Ship Positions

Ascanius

Last reported at 2015-Mar-02 18:33 UTC. Time now 2015-Mar-02 19:08 UTC.
Position N 23°03' E 113°30'.

Length 225 m; draft 12.6 m.

Type: Cargo ship. MMSI: 538002012.

Date/timePositionNaut miles runAvg speedWind from/ knotsBaromVisibWave heightAir tempDewpointWater temp
2015-Mar-02 18:33N 23°03' E 113°30'4 4.1
2015-Mar-02 17:33N 22°59' E 113°32'8 7.8
2015-Mar-02 16:33N 22°52' E 113°34'1110.1
2015-Mar-02 15:30N 22°43' E 113°41'1 0.4
2015-Mar-02 14:12N 22°43' E 113°41'0 0.0
2015-Mar-02 13:30N 22°43' E 113°41'0 0.0
2015-Mar-02 12:24N 22°43' E 113°41'0 0.0
2015-Mar-02 11:24N 22°43' E 113°41'0 0.1
2015-Mar-02 07:30N 22°42' E 113°41'0 0.0
2015-Mar-02 05:24N 22°42' E 113°41'0 0.1
2015-Mar-02 03:24N 22°43' E 113°41'0 0.0
2015-Mar-01 23:12N 22°43' E 113°41'0 0.1
2015-Mar-01 20:18N 22°42' E 113°41'0 0.0
2015-Mar-01 19:30N 22°42' E 113°41'0 0.0
2015-Mar-01 17:30N 22°42' E 113°41'0 0.1
2015-Mar-01 16:18N 22°42' E 113°41'0 0.0
2015-Mar-01 15:12N 22°42' E 113°41'0 0.0
2015-Mar-01 08:30N 22°43' E 113°41'0 0.1
2015-Mar-01 07:18N 22°42' E 113°41'0 0.1
2015-Mar-01 04:30N 22°43' E 113°41'0 0.0
2015-Mar-01 00:06N 22°43' E 113°41'0 0.2
2015-Feb-28 23:12N 22°43' E 113°41'0 0.1
2015-Feb-28 19:24N 22°42' E 113°41'0 0.0
2015-Feb-28 15:12N 22°42' E 113°41'0 0.1
2015-Feb-28 14:12N 22°42' E 113°41'0 0.2
2015-Feb-28 13:06N 22°43' E 113°41'0 0.0
2015-Feb-28 12:24N 22°43' E 113°41'0 0.0
2015-Feb-28 10:18N 22°43' E 113°41'0 0.0
2015-Feb-28 07:18N 22°43' E 113°41'0 0.1
2015-Feb-28 06:18N 22°43' E 113°41'0 0.1
2015-Feb-28 03:06N 22°43' E 113°41'0 0.2
2015-Feb-28 02:24N 22°43' E 113°41'0 0.0
2015-Feb-28 00:18N 22°43' E 113°41'0 0.1
2015-Feb-27 19:24N 22°42' E 113°41'0 0.0
2015-Feb-27 10:18N 22°43' E 113°41'0 0.0
2015-Feb-27 09:06N 22°43' E 113°41'0 0.1
2015-Feb-27 08:30N 22°43' E 113°41'0 0.0
2015-Feb-27 07:16N 22°43' E 113°41'0 0.0
2015-Feb-27 05:28N 22°43' E 113°41'0 0.0
2015-Feb-27 04:10N 22°43' E 113°41'0 0.1
2015-Feb-27 03:04N 22°43' E 113°41'0 0.1
2015-Feb-27 02:28N 22°43' E 113°41'0 0.1
2015-Feb-27 01:28N 22°43' E 113°41'0 0.1
2015-Feb-27 00:28N 22°43' E 113°41'0 0.0
2015-Feb-26 23:28N 22°43' E 113°41'0 0.0
2015-Feb-26 22:22N 22°43' E 113°41'0 0.0
2015-Feb-26 21:22N 22°43' E 113°41'0 0.1
2015-Feb-26 17:10N 22°42' E 113°41'0 0.0
2015-Feb-26 13:10N 22°43' E 113°41'0 0.1
2015-Feb-26 09:28N 22°43' E 113°41'0 0.0
2015-Feb-26 08:04N 22°43' E 113°41'0 0.0
2015-Feb-26 07:28N 22°43' E 113°41'1 0.9
2015-Feb-26 06:33N 22°42' E 113°41'1110.3
2015-Feb-26 05:27N 22°31' E 113°44'1112.5
2015-Feb-26 04:33N 22°20' E 113°48'1111.2
2015-Feb-26 03:33N 22°10' E 113°51'5 4.3
2015-Feb-26 02:28N 22°05' E 113°52'0 0.0
2015-Feb-25 23:28N 22°05' E 113°52'0 0.0
2015-Feb-25 19:28N 22°05' E 113°52'0 0.1
2015-Feb-25 18:28N 22°05' E 113°52'0 0.0
2015-Feb-25 16:28N 22°05' E 113°52'0 0.0
2015-Feb-25 15:16N 22°05' E 113°52'0 0.1
2015-Feb-25 13:31N 22°05' E 113°52'  
2015-Feb-21 04:26N 01°16' E 104°11'7 7.8
2015-Feb-21 03:32N 01°18' E 104°04'0 0.1
2015-Feb-21 00:05N 01°18' E 104°04'0 0.0
2015-Feb-20 21:29N 01°18' E 104°04'0 0.1
2015-Feb-20 20:17N 01°18' E 104°04'0 0.1
2015-Feb-20 19:29N 01°18' E 104°04'  
Track history (hours):
 
Tides and Currents Weather Stations Pressure Air Temp Water Temp Dewpoint Dewpoint Depression Visibility Wind Speed Wind Dir Waves Ship Positions

Ascanius

Last reported at 2015-Mar-02 18:33 UTC. Time now 2015-Mar-02 19:08 UTC.
Position N 23°03' E 113°30'.

Length 225 m; draft 12.6 m.

Type: Cargo ship. MMSI: 538002012.

Date/timePositionNaut miles runAvg speedWind from/ knotsBaromVisibWave heightAir tempDewpointWater temp
2015-Mar-02 18:33N 23°03' E 113°30'4 4.1
2015-Mar-02 17:33N 22°59' E 113°32'8 7.8
2015-Mar-02 16:33N 22°52' E 113°34'1110.1
2015-Mar-02 15:30N 22°43' E 113°41'1 0.4
2015-Mar-02 14:12N 22°43' E 113°41'0 0.0
2015-Mar-02 13:30N 22°43' E 113°41'0 0.0
2015-Mar-02 12:24N 22°43' E 113°41'0 0.0
2015-Mar-02 11:24N 22°43' E 113°41'0 0.1
2015-Mar-02 07:30N 22°42' E 113°41'0 0.0
2015-Mar-02 05:24N 22°42' E 113°41'0 0.1
2015-Mar-02 03:24N 22°43' E 113°41'0 0.0
2015-Mar-01 23:12N 22°43' E 113°41'0 0.1
2015-Mar-01 20:18N 22°42' E 113°41'0 0.0
2015-Mar-01 19:30N 22°42' E 113°41'0 0.0
2015-Mar-01 17:30N 22°42' E 113°41'0 0.1
2015-Mar-01 16:18N 22°42' E 113°41'0 0.0
2015-Mar-01 15:12N 22°42' E 113°41'0 0.0
2015-Mar-01 08:30N 22°43' E 113°41'0 0.1
2015-Mar-01 07:18N 22°42' E 113°41'0 0.1
2015-Mar-01 04:30N 22°43' E 113°41'0 0.0
2015-Mar-01 00:06N 22°43' E 113°41'0 0.2
2015-Feb-28 23:12N 22°43' E 113°41'0 0.1
2015-Feb-28 19:24N 22°42' E 113°41'0 0.0
2015-Feb-28 15:12N 22°42' E 113°41'0 0.1
2015-Feb-28 14:12N 22°42' E 113°41'0 0.2
2015-Feb-28 13:06N 22°43' E 113°41'0 0.0
2015-Feb-28 12:24N 22°43' E 113°41'0 0.0
2015-Feb-28 10:18N 22°43' E 113°41'0 0.0
2015-Feb-28 07:18N 22°43' E 113°41'0 0.1
2015-Feb-28 06:18N 22°43' E 113°41'0 0.1
2015-Feb-28 03:06N 22°43' E 113°41'0 0.2
2015-Feb-28 02:24N 22°43' E 113°41'0 0.0
2015-Feb-28 00:18N 22°43' E 113°41'0 0.1
2015-Feb-27 19:24N 22°42' E 113°41'0 0.0
2015-Feb-27 10:18N 22°43' E 113°41'0 0.0
2015-Feb-27 09:06N 22°43' E 113°41'0 0.1
2015-Feb-27 08:30N 22°43' E 113°41'0 0.0
2015-Feb-27 07:16N 22°43' E 113°41'0 0.0
2015-Feb-27 05:28N 22°43' E 113°41'0 0.0
2015-Feb-27 04:10N 22°43' E 113°41'0 0.1
2015-Feb-27 03:04N 22°43' E 113°41'0 0.1
2015-Feb-27 02:28N 22°43' E 113°41'0 0.1
2015-Feb-27 01:28N 22°43' E 113°41'0 0.1
2015-Feb-27 00:28N 22°43' E 113°41'0 0.0
2015-Feb-26 23:28N 22°43' E 113°41'0 0.0
2015-Feb-26 22:22N 22°43' E 113°41'0 0.0
2015-Feb-26 21:22N 22°43' E 113°41'0 0.1
2015-Feb-26 17:10N 22°42' E 113°41'0 0.0
2015-Feb-26 13:10N 22°43' E 113°41'0 0.1
2015-Feb-26 09:28N 22°43' E 113°41'0 0.0
2015-Feb-26 08:04N 22°43' E 113°41'0 0.0
2015-Feb-26 07:28N 22°43' E 113°41'1 0.9
2015-Feb-26 06:33N 22°42' E 113°41'1110.3
2015-Feb-26 05:27N 22°31' E 113°44'1112.5
2015-Feb-26 04:33N 22°20' E 113°48'1111.2
2015-Feb-26 03:33N 22°10' E 113°51'5 4.3
2015-Feb-26 02:28N 22°05' E 113°52'0 0.0
2015-Feb-25 23:28N 22°05' E 113°52'0 0.0
2015-Feb-25 19:28N 22°05' E 113°52'0 0.1
2015-Feb-25 18:28N 22°05' E 113°52'0 0.0
2015-Feb-25 16:28N 22°05' E 113°52'0 0.0
2015-Feb-25 15:16N 22°05' E 113°52'0 0.1
2015-Feb-25 13:31N 22°05' E 113°52'  
2015-Feb-21 04:26N 01°16' E 104°11'7 7.8
2015-Feb-21 03:32N 01°18' E 104°04'0 0.1
2015-Feb-21 00:05N 01°18' E 104°04'0 0.0
2015-Feb-20 21:29N 01°18' E 104°04'0 0.1
2015-Feb-20 20:17N 01°18' E 104°04'0 0.1
2015-Feb-20 19:29N 01°18' E 104°04'  

Dump ship's entire track history